Time;durP1;ratioP1;P1;durP2;ratioP2;P2;SDS_P1;SDS_P2;PMS_P1;PMS_P2;Temp;Humidity;BMP_temperature;BMP_pressure;BME280_temperature;BME280_humidity;BME280_pressure;Samples;Min_cycle;Max_cycle;Signal;HPM_P1;HPM_P2
2021/12/05 00:23:33;;;;;;;;;1.00;1.00;;;;;4.59;100.00;100036.72;4842429;29;45521;-86
2021/12/05 00:26:02;;;;;;;;;0.75;0.75;;;;;4.61;100.00;100032.25;4842479;29;45418;-86
2021/12/05 00:31:39;;;;;;;;;1.00;0.75;;;;;4.54;100.00;100026.44;4815559;29;45442;-86
2021/12/05 00:34:31;;;;;;;;;3.25;2.00;;;;;4.60;100.00;100035.81;4844814;29;44809;-85
2021/12/05 00:45:42;;;;;;;;;2.50;1.25;;;;;4.57;100.00;100018.41;4905076;29;44797;-87
2021/12/05 00:48:35;;;;;;;;;2.25;1.00;;;;;4.57;100.00;100012.31;4906640;29;45569;-86
2021/12/05 01:06:39;;;;;;;;;3.00;1.00;;;;;4.50;100.00;100000.44;4903747;29;44799;-86
2021/12/05 01:14:01;;;;;;;;;1.50;0.00;;;;;4.53;100.00;100005.50;4903663;29;44760;-85
2021/12/05 01:16:28;;;;;;;;;0.00;0.00;;;;;4.59;100.00;99997.28;4903598;29;44801;-86
2021/12/05 01:18:54;;;;;;;;;0.50;0.50;;;;;4.66;100.00;99995.19;4903560;29;45491;-86
2021/12/05 01:21:20;;;;;;;;;0.00;0.00;;;;;4.66;100.00;99989.91;4885683;29;45625;-85
2021/12/05 01:23:56;;;;;;;;;0.50;0.50;;;;;4.63;100.00;99999.66;4903459;29;44872;-86
2021/12/05 01:26:36;;;;;;;;;0.25;0.25;;;;;4.62;100.00;99997.13;4903794;29;44811;-85
2021/12/05 01:32:01;;;;;;;;;0.00;0.00;;;;;4.64;100.00;99992.59;4924296;28;44883;-85
2021/12/05 01:49:59;;;;;;;;;1.50;0.00;;;;;4.61;100.00;99974.38;4922707;28;45327;-85
2021/12/05 02:35:54;;;;;;;;;1.25;0.00;;;;;4.39;100.00;99972.91;4906613;29;45287;-85
2021/12/05 02:41:09;;;;;;;;;1.25;0.00;;;;;4.36;100.00;99969.59;4906085;29;44841;-86
2021/12/05 02:43:40;;;;;;;;;0.50;0.50;;;;;4.36;100.00;99964.34;4905120;29;45134;-85
2021/12/05 02:46:06;;;;;;;;;0.00;0.00;;;;;4.33;100.00;99957.47;4905388;29;44767;-86
2021/12/05 02:48:36;;;;;;;;;1.50;1.00;;;;;4.30;100.00;99951.50;4907836;29;44824;-86
2021/12/05 02:51:05;;;;;;;;;1.00;0.00;;;;;4.26;100.00;99942.13;4908984;29;44735;-85
2021/12/05 02:56:00;;;;;;;;;0.00;0.00;;;;;4.22;100.00;99941.41;4910764;29;44778;-86
2021/12/05 02:58:38;;;;;;;;;0.25;0.00;;;;;4.26;100.00;99939.47;4907333;29;44796;-86
2021/12/05 03:01:11;;;;;;;;;0.00;0.00;;;;;4.22;100.00;99932.69;4903276;29;44831;-86
2021/12/05 03:03:37;;;;;;;;;0.00;0.00;;;;;4.22;100.00;99936.16;4884814;29;47392;-86
2021/12/05 03:06:16;;;;;;;;;0.00;0.00;;;;;4.22;100.00;99928.28;4902173;29;45396;-86
2021/12/05 03:08:47;;;;;;;;;0.00;0.00;;;;;4.19;100.00;99931.06;4885956;29;45516;-86
2021/12/05 03:11:13;;;;;;;;;1.00;0.00;;;;;4.20;100.00;99927.50;4904582;29;44678;-87
2021/12/05 03:13:40;;;;;;;;;0.00;0.00;;;;;4.16;100.00;99941.75;4904987;29;45063;-87
2021/12/05 03:16:08;;;;;;;;;1.75;1.00;;;;;4.14;100.00;99935.72;4904448;29;44714;-86
2021/12/05 03:18:34;;;;;;;;;0.00;0.00;;;;;4.11;100.00;99928.00;4904659;29;45588;-86
2021/12/05 03:21:01;;;;;;;;;0.00;0.00;;;;;4.10;100.00;99931.53;4904926;29;44969;-85
2021/12/05 03:23:26;;;;;;;;;0.00;0.00;;;;;4.09;100.00;99925.44;4904441;29;45599;-85
2021/12/05 03:25:53;;;;;;;;;0.00;0.00;;;;;4.08;100.00;99923.75;4904334;29;45409;-86
2021/12/05 03:28:18;;;;;;;;;0.00;0.00;;;;;4.07;100.00;99918.59;4905830;29;44814;-86
2021/12/05 03:30:45;;;;;;;;;0.00;0.00;;;;;4.06;100.00;99924.75;4911751;28;44878;-85
2021/12/05 03:33:11;;;;;;;;;0.00;0.00;;;;;3.99;100.00;99926.88;4923410;28;45389;-86
2021/12/05 03:35:38;;;;;;;;;0.00;0.00;;;;;4.01;100.00;99922.41;4925144;28;44770;-86
2021/12/05 03:38:05;;;;;;;;;0.50;0.50;;;;;3.98;100.00;99921.69;4925660;28;44841;-86
2021/12/05 03:40:33;;;;;;;;;0.50;0.00;;;;;3.94;100.00;99918.38;4925624;28;44774;-86
2021/12/05 03:43:02;;;;;;;;;0.00;0.00;;;;;3.95;100.00;99913.97;4927336;28;45202;-86
2021/12/05 03:45:33;;;;;;;;;0.00;0.00;;;;;3.93;100.00;99923.72;4926270;28;44696;-86
2021/12/05 03:47:58;;;;;;;;;0.00;0.00;;;;;3.88;100.00;99918.72;4925599;28;45515;-86
2021/12/05 03:50:26;;;;;;;;;0.00;0.00;;;;;3.84;100.00;99915.38;4925830;28;44912;-86
2021/12/05 03:52:51;;;;;;;;;0.00;0.00;;;;;3.85;100.00;99900.47;4926515;28;45286;-86
2021/12/05 03:55:18;;;;;;;;;0.00;0.00;;;;;3.85;100.00;99896.06;4924824;28;45228;-85
2021/12/05 03:57:44;;;;;;;;;0.00;0.00;;;;;3.86;100.00;99907.41;4919852;28;45382;-85
2021/12/05 04:00:21;;;;;;;;;0.00;0.00;;;;;3.83;100.00;99910.22;4906555;29;45370;-85
2021/12/05 04:02:49;;;;;;;;;0.00;0.00;;;;;3.82;100.00;99904.13;4907760;29;46822;-86
2021/12/05 04:05:15;;;;;;;;;0.40;0.00;;;;;3.83;100.00;99908.44;4893398;29;44794;-84
2021/12/05 04:07:40;;;;;;;;;0.00;0.00;;;;;3.83;100.00;99903.19;4910508;29;44794;-88
2021/12/05 04:10:07;;;;;;;;;0.00;0.00;;;;;3.79;100.00;99893.75;4909193;29;44827;-85
2021/12/05 04:12:32;;;;;;;;;0.00;0.00;;;;;3.77;100.00;99892.13;4910080;29;45329;-85
2021/12/05 04:14:58;;;;;;;;;0.00;0.00;;;;;3.76;100.00;99898.31;4907368;29;44813;-85
2021/12/05 04:17:23;;;;;;;;;1.00;0.00;;;;;3.74;100.00;99894.94;4903687;29;44811;-85
2021/12/05 04:19:49;;;;;;;;;0.00;0.00;;;;;3.75;100.00;99899.25;4902638;29;45229;-85
2021/12/05 04:22:15;;;;;;;;;0.00;0.00;;;;;3.75;100.00;99905.34;4902487;29;45538;-85
2021/12/05 04:24:40;;;;;;;;;0.00;0.00;;;;;3.71;100.00;99895.94;4901405;29;45154;-85
2021/12/05 04:27:07;;;;;;;;;0.00;0.00;;;;;3.79;100.00;99906.06;4901653;29;44820;-85
2021/12/05 04:29:34;;;;;;;;;1.00;0.00;;;;;3.81;100.00;99914.69;4903339;29;44839;-85
2021/12/05 04:32:00;;;;;;;;;0.00;0.00;;;;;3.75;100.00;99901.88;4902928;29;45182;-86
2021/12/05 04:34:25;;;;;;;;;0.00;0.00;;;;;3.70;100.00;99886.38;4903281;29;44700;-85
2021/12/05 04:36:56;;;;;;;;;0.00;0.00;;;;;3.72;100.00;99896.78;4885777;29;45366;-85
2021/12/05 04:39:23;;;;;;;;;0.50;0.00;;;;;3.73;100.00;99896.72;4902565;29;44770;-85
2021/12/05 04:41:50;;;;;;;;;1.00;0.00;;;;;3.74;100.00;99895.78;4902723;29;45443;-85
2021/12/05 04:44:16;;;;;;;;;0.00;0.00;;;;;3.76;100.00;99893.91;4901965;29;44902;-86
2021/12/05 04:46:41;;;;;;;;;0.00;0.00;;;;;3.77;100.00;99897.38;4902171;29;45350;-86
2021/12/05 04:49:07;;;;;;;;;0.00;0.00;;;;;3.74;100.00;99889.69;4885084;29;44884;-87
2021/12/05 04:51:40;;;;;;;;;0.00;0.00;;;;;3.73;100.00;99888.84;4903920;29;45165;-85
2021/12/05 04:54:07;;;;;;;;;0.00;0.00;;;;;3.70;100.00;99885.53;4903508;29;44829;-85
2021/12/05 04:56:34;;;;;;;;;0.00;0.00;;;;;3.68;100.00;99882.97;4902027;29;44691;-86
2021/12/05 04:59:03;;;;;;;;;0.00;0.00;;;;;3.66;100.00;99895.31;4902669;29;45415;-86
2021/12/05 05:01:28;;;;;;;;;0.00;0.00;;;;;3.64;100.00;99893.72;4903786;29;45426;-85
2021/12/05 05:03:54;;;;;;;;;2.00;0.00;;;;;3.67;100.00;99893.53;4903643;29;44785;-85
2021/12/05 05:06:21;;;;;;;;;0.00;0.00;;;;;3.61;100.00;99892.94;4885489;29;45370;-85
2021/12/05 05:08:50;;;;;;;;;0.00;0.00;;;;;3.63;100.00;99895.50;4902940;29;44766;-85
2021/12/05 05:11:20;;;;;;;;;1.00;0.00;;;;;3.63;100.00;99877.13;4903592;29;45594;-88
2021/12/05 05:13:47;;;;;;;;;0.00;0.00;;;;;3.60;100.00;99874.66;4908561;29;44700;-88
2021/12/05 05:16:15;;;;;;;;;0.75;0.00;;;;;3.60;100.00;99877.28;4909457;29;44814;-87
2021/12/05 05:18:53;;;;;;;;;0.00;0.00;;;;;3.58;100.00;99877.34;4893197;29;44797;-87
2021/12/05 05:21:46;;;;;;;;;0.00;0.00;;;;;3.56;100.00;99873.94;4910658;29;45199;-88
2021/12/05 05:27:05;;;;;;;;;2.00;0.00;;;;;3.53;100.00;99865.38;4905006;29;45022;-88
2021/12/05 05:50:48;;;;;;;;;0.00;0.00;;;;;3.77;100.00;99877.25;4894948;29;44864;-87
2021/12/05 05:53:14;;;;;;;;;0.00;0.00;;;;;3.77;100.00;99879.00;4888942;29;46794;-86
2021/12/05 05:55:40;;;;;;;;;0.25;0.25;;;;;3.82;100.00;99890.13;4906232;29;45332;-88
2021/12/05 05:58:14;;;;;;;;;0.00;0.00;;;;;3.87;100.00;99885.50;4908283;29;45407;-88
2021/12/05 06:01:01;;;;;;;;;0.00;0.00;;;;;3.98;100.00;99888.38;4909736;29;44932;-88
2021/12/05 06:03:27;;;;;;;;;0.00;0.00;;;;;4.06;100.00;99883.59;4910499;29;45267;-88
2021/12/05 06:05:59;;;;;;;;;0.50;0.00;;;;;4.06;100.00;99875.69;4890745;29;44775;-88
2021/12/05 06:08:27;;;;;;;;;0.00;0.00;;;;;4.08;100.00;99878.22;4907539;29;44697;-88
2021/12/05 06:10:56;;;;;;;;;1.50;0.75;;;;;4.05;100.00;99873.13;4911203;29;44889;-88
2021/12/05 06:13:22;;;;;;;;;1.00;0.00;;;;;4.03;100.00;99873.22;4907444;29;45404;-87
2021/12/05 06:15:48;;;;;;;;;0.25;0.00;;;;;4.02;100.00;99871.53;4908349;29;44700;-87
2021/12/05 06:18:14;;;;;;;;;0.00;0.00;;;;;4.01;100.00;99861.97;4908553;29;44747;-88
2021/12/05 06:20:41;;;;;;;;;2.00;0.25;;;;;3.97;100.00;99857.78;4908125;29;44921;-88
2021/12/05 06:23:07;;;;;;;;;0.75;0.00;;;;;3.97;100.00;99852.53;4907124;29;45407;-87
2021/12/05 06:25:35;;;;;;;;;2.40;0.80;;;;;3.95;100.00;99853.53;4909316;29;44769;-87
2021/12/05 06:28:08;;;;;;;;;0.00;0.00;;;;;3.98;100.00;99859.47;4890502;29;44729;-87
2021/12/05 06:46:04;;;;;;;;;0.00;0.00;;;;;4.10;100.00;99873.72;4909181;29;45388;-84
2021/12/05 06:48:30;;;;;;;;;1.00;1.00;;;;;4.10;100.00;99866.69;4910160;29;44683;-84
2021/12/05 06:50:56;;;;;;;;;2.00;1.00;;;;;4.13;100.00;99863.06;4908724;29;44719;-82
2021/12/05 06:53:21;;;;;;;;;0.00;0.00;;;;;4.15;100.00;99863.81;4902735;29;45164;-82
2021/12/05 06:55:47;;;;;;;;;0.00;0.00;;;;;4.16;100.00;99869.91;4903313;29;44776;-82
2021/12/05 06:58:12;;;;;;;;;0.00;0.00;;;;;4.19;100.00;99867.97;4902968;29;44810;-82
2021/12/05 07:00:37;;;;;;;;;1.75;0.00;;;;;4.20;100.00;99867.03;4902276;29;45268;-81
2021/12/05 07:03:03;;;;;;;;;0.00;0.00;;;;;4.22;100.00;99869.59;4902399;29;45403;-82
2021/12/05 07:05:46;;;;;;;;;1.75;0.00;;;;;4.22;100.00;99878.34;4902997;29;45221;-82
2021/12/05 07:08:14;;;;;;;;;1.20;0.60;;;;;4.21;100.00;99881.91;4902453;29;45309;-83
2021/12/05 07:10:53;;;;;;;;;2.00;1.00;;;;;4.20;100.00;99901.22;4885790;29;44889;-83
2021/12/05 07:21:22;;;;;;;;;2.00;1.00;;;;;3.98;100.00;99895.44;4906060;29;44800;-84
2021/12/05 07:24:05;;;;;;;;;2.25;1.00;;;;;3.95;100.00;99892.94;4902818;29;45248;-82
2021/12/05 07:40:27;;;;;;;;;1.75;1.00;;;;;3.92;100.00;99898.38;4902555;29;44885;-84
2021/12/05 07:43:04;;;;;;;;;0.00;0.00;;;;;3.99;100.00;99902.38;4903007;29;44894;-85
2021/12/05 07:45:41;;;;;;;;;0.50;0.00;;;;;4.02;100.00;99894.34;4902995;29;45178;-84
2021/12/05 07:48:13;;;;;;;;;3.80;0.00;;;;;3.98;100.00;99904.16;4887123;29;44752;-85
2021/12/05 07:50:57;;;;;;;;;0.50;0.50;;;;;4.00;100.00;99907.53;4902442;29;44845;-85
2021/12/05 07:53:31;;;;;;;;;0.00;0.00;;;;;4.00;100.00;99904.91;4906858;29;45637;-86
2021/12/05 07:56:05;;;;;;;;;2.25;1.00;;;;;4.02;100.00;99904.84;4904585;29;45645;-87
2021/12/05 07:58:52;;;;;;;;;1.00;1.00;;;;;3.99;100.00;99897.97;4911200;29;45322;-89
2021/12/05 08:15:29;;;;;;;;;2.00;0.50;;;;;4.19;100.00;99915.28;4911649;29;44767;-89
2021/12/05 08:17:32;;;;;;;;;1.00;1.00;;;;;4.25;100.00;99904.44;4904879;29;45022;-90
2021/12/05 08:19:58;;;;;;;;;0.25;0.25;;;;;4.26;100.00;99902.69;4910272;29;44789;-89
2021/12/05 08:22:24;;;;;;;;;2.00;1.00;;;;;4.35;100.00;99910.03;4910308;29;44670;-91
2021/12/05 08:25:14;;;;;;;;;1.00;1.00;;;;;4.40;100.00;99926.44;4908080;29;44865;-91
2021/12/05 08:27:46;;;;;;;;;0.75;0.75;;;;;4.43;100.00;99907.84;4894778;29;46862;-89
2021/12/05 08:30:18;;;;;;;;;4.25;2.00;;;;;4.47;100.00;99909.38;4891174;29;44759;-91
2021/12/05 08:33:18;;;;;;;;;0.25;0.25;;;;;4.51;100.00;99907.44;4908496;29;44619;-91
2021/12/05 08:38:45;;;;;;;;;2.00;0.00;;;;;4.50;100.00;99906.59;4907952;29;45033;-90
2021/12/05 09:21:44;;;;;;;;;1.25;1.25;;;;;5.03;100.00;99928.16;4910769;29;44986;-90
2021/12/05 09:27:11;;;;;;;;;2.00;2.00;;;;;5.20;100.00;99929.84;4920783;29;44698;-90
2021/12/05 10:08:52;;;;;;;;;5.60;4.00;;;;;5.97;100.00;99949.91;4867937;29;44746;-90
2021/12/05 10:11:28;;;;;;;;;10.50;9.25;;;;;5.96;100.00;99945.59;4853128;29;44791;-90
2021/12/05 10:14:10;;;;;;;;;4.50;3.25;;;;;5.98;100.00;99941.91;4859232;29;45016;-89
2021/12/05 10:37:22;;;;;;;;;4.75;2.00;;;;;6.38;100.00;99950.88;4868786;29;44818;-90
2021/12/05 10:40:15;;;;;;;;;2.00;2.00;;;;;6.45;100.00;99938.13;4868297;29;45380;-89
2021/12/05 10:42:45;;;;;;;;;1.00;1.00;;;;;6.37;100.00;99928.03;4882776;29;44830;-89
2021/12/05 10:45:19;;;;;;;;;2.00;1.00;;;;;6.48;100.00;99937.06;4897206;29;44720;-89
2021/12/05 10:47:49;;;;;;;;;3.00;3.00;;;;;6.53;100.00;99930.59;4912494;29;44980;-90
2021/12/05 10:50:31;;;;;;;;;2.00;2.00;;;;;6.60;100.00;99939.78;4913216;29;45464;-90
2021/12/05 10:53:18;;;;;;;;;4.00;4.00;;;;;6.63;100.00;99922.94;4895324;29;44652;-90
2021/12/05 10:55:45;;;;;;;;;3.00;3.00;;;;;6.84;100.00;99932.09;4913970;29;44700;-89
2021/12/05 10:58:10;;;;;;;;;2.25;0.00;;;;;6.89;100.00;99914.16;4898508;29;44904;-90
2021/12/05 11:00:36;;;;;;;;;2.75;2.75;;;;;6.86;100.00;99929.34;4913156;29;45349;-89
2021/12/05 11:03:32;;;;;;;;;4.00;3.00;;;;;6.68;100.00;99905.84;4911113;29;45247;-92
2021/12/05 11:05:58;;;;;;;;;2.60;1.40;;;;;6.57;100.00;99910.94;4903064;29;44777;-91
2021/12/05 11:08:37;;;;;;;;;1.00;1.00;;;;;6.51;100.00;99918.41;4893421;29;44838;-90
2021/12/05 11:11:12;;;;;;;;;2.00;2.00;;;;;6.47;100.00;99911.63;4912599;29;45141;-91
2021/12/05 11:13:39;;;;;;;;;6.60;1.20;;;;;6.46;100.00;99902.88;4892148;29;44804;-90
2021/12/05 11:16:35;;;;;;;;;3.25;3.25;;;;;6.50;100.00;99914.09;4914621;28;44814;-91
2021/12/05 11:19:07;;;;;;;;;3.00;3.00;;;;;6.41;100.00;99905.81;4896408;29;44934;-90
2021/12/05 11:21:35;;;;;;;;;3.00;3.00;;;;;6.40;100.00;99905.91;4894434;29;46832;-91
2021/12/05 11:24:16;;;;;;;;;3.40;1.00;;;;;6.44;100.00;99905.63;4895500;29;44790;-90
2021/12/05 11:27:07;;;;;;;;;5.80;2.60;;;;;6.43;100.00;99898.66;4920653;29;44802;-93
2021/12/05 11:29:46;;;;;;;;;3.00;3.00;;;;;6.44;100.00;99908.25;4888828;29;44870;-91
2021/12/05 11:32:17;;;;;;;;;5.25;4.75;;;;;6.36;100.00;99914.97;4903140;29;46776;-92
2021/12/05 11:34:43;;;;;;;;;4.00;3.40;;;;;6.35;100.00;99911.47;4899638;29;44761;-91
2021/12/05 11:37:09;;;;;;;;;3.00;3.00;;;;;6.25;100.00;99910.38;4917465;29;45328;-90
2021/12/05 11:39:35;;;;;;;;;5.00;5.00;;;;;6.14;100.00;99913.66;4894677;29;44924;-92
2021/12/05 11:42:17;;;;;;;;;5.00;4.00;;;;;6.06;100.00;99910.66;4912523;29;44960;-92
2021/12/05 11:44:46;;;;;;;;;4.00;3.00;;;;;6.02;100.00;99914.41;4892769;29;44761;-91
2021/12/05 11:47:18;;;;;;;;;5.25;5.25;;;;;5.95;100.00;99906.97;4913370;29;44687;-91
2021/12/05 11:49:45;;;;;;;;;6.00;3.00;;;;;5.88;100.00;99920.50;4896527;29;44876;-91
2021/12/05 11:52:12;;;;;;;;;7.75;3.00;;;;;5.79;100.00;99907.88;4892554;29;45511;-91
2021/12/05 11:58:01;;;;;;;;;2.60;1.40;;;;;5.56;100.00;99934.75;4906417;29;44743;-88
2021/12/05 12:00:30;;;;;;;;;5.50;4.75;;;;;5.50;100.00;99946.50;4889132;29;44894;-88
2021/12/05 12:02:55;;;;;;;;;2.00;2.00;;;;;5.33;100.00;99941.38;4904269;29;45293;-88
2021/12/05 12:05:30;;;;;;;;;1.00;1.00;;;;;5.18;100.00;99950.16;4907044;29;44737;-88
2021/12/05 12:08:05;;;;;;;;;0.00;0.00;;;;;4.95;100.00;99960.19;4886748;29;44748;-88
2021/12/05 12:10:40;;;;;;;;;3.00;1.00;;;;;4.87;100.00;99976.41;4906608;29;44860;-87
2021/12/05 12:13:08;;;;;;;;;2.25;2.25;;;;;4.88;100.00;99985.16;4904212;29;45402;-89
2021/12/05 12:15:35;;;;;;;;;3.00;3.00;;;;;4.81;100.00;99968.88;4912071;29;45346;-89
2021/12/05 12:18:13;;;;;;;;;2.75;2.75;;;;;4.87;100.00;99980.81;4896964;29;44744;-87
2021/12/05 12:20:41;;;;;;;;;3.25;2.00;;;;;4.84;100.00;99971.34;4920224;29;45199;-87
2021/12/05 12:23:07;;;;;;;;;1.00;1.00;;;;;4.86;100.00;99973.88;4919315;29;46771;-87
2021/12/05 12:25:38;;;;;;;;;3.75;2.00;;;;;4.82;100.00;99970.56;4905044;29;44834;-87
2021/12/05 12:28:06;;;;;;;;;0.00;0.00;;;;;4.67;100.00;99973.19;4894321;29;44634;-88
2021/12/05 12:30:38;;;;;;;;;0.00;0.00;;;;;4.57;100.00;99973.69;4892682;29;45499;-87
2021/12/05 12:33:11;;;;;;;;;1.75;0.75;;;;;4.58;100.00;99971.91;4894671;29;45581;-88
2021/12/05 12:35:38;;;;;;;;;3.20;0.00;;;;;4.45;100.00;99984.91;4884079;29;44696;-88
2021/12/05 12:38:08;;;;;;;;;1.75;1.00;;;;;4.34;100.00;100003.00;4885600;29;44791;-88
2021/12/05 12:41:11;;;;;;;;;1.75;1.00;;;;;4.36;100.00;99985.38;4900665;29;44796;-87
2021/12/05 12:43:55;;;;;;;;;2.00;2.00;;;;;4.38;100.00;99986.13;4899552;29;45634;-90
2021/12/05 12:46:23;;;;;;;;;1.00;1.00;;;;;4.38;100.00;99999.28;4867886;29;45223;-89
2021/12/05 12:48:52;;;;;;;;;2.50;0.75;;;;;4.36;100.00;99993.28;4876765;29;44784;-89
2021/12/05 12:51:36;;;;;;;;;1.00;1.00;;;;;4.38;100.00;99986.97;4904470;29;45237;-87
2021/12/05 12:54:09;;;;;;;;;0.00;0.00;;;;;4.35;100.00;99997.69;4903125;29;45309;-86
2021/12/05 12:56:35;;;;;;;;;2.00;2.00;;;;;4.32;100.00;99987.31;4901461;29;44899;-89
2021/12/05 12:59:06;;;;;;;;;1.00;1.00;;;;;4.41;100.00;100009.66;4904217;29;44785;-88
2021/12/05 13:12:51;;;;;;;;;3.00;3.00;;;;;4.71;100.00;100003.66;4889187;29;44839;-88
2021/12/05 13:15:29;;;;;;;;;2.50;2.50;;;;;4.72;100.00;100008.84;4891251;29;45291;-86
2021/12/05 13:18:08;;;;;;;;;2.75;1.25;;;;;4.79;100.00;100017.25;4888953;29;45452;-88
2021/12/05 13:20:43;;;;;;;;;2.00;2.00;;;;;4.83;100.00;100002.97;4903536;29;44728;-87
2021/12/05 13:23:15;;;;;;;;;3.00;3.00;;;;;4.82;100.00;100009.19;4885922;29;45226;-88
2021/12/05 13:26:08;;;;;;;;;3.75;3.75;;;;;4.91;100.00;100013.94;4903412;29;45282;-88
2021/12/05 13:28:39;;;;;;;;;5.50;4.00;;;;;4.97;100.00;100005.69;4886286;29;44833;-87
2021/12/05 13:31:27;;;;;;;;;3.00;3.00;;;;;5.09;100.00;100012.06;4895695;29;44837;-88
2021/12/05 13:34:21;;;;;;;;;4.25;4.25;;;;;5.17;100.00;100007.22;4903156;29;44825;-87
2021/12/05 13:36:50;;;;;;;;;3.25;3.00;;;;;5.30;100.00;100008.22;4880145;29;45217;-87
2021/12/05 13:39:35;;;;;;;;;3.50;3.50;;;;;5.26;100.00;100000.56;4901530;29;44736;-87
2021/12/05 13:42:09;;;;;;;;;4.00;4.00;;;;;5.35;100.00;100011.44;4888563;29;45282;-87
2021/12/05 13:45:01;;;;;;;;;5.25;4.75;;;;;5.36;100.00;100020.19;4893067;29;44858;-87
2021/12/05 13:47:52;;;;;;;;;12.75;7.25;;;;;5.28;100.00;100012.75;4837007;29;45496;-88
2021/12/05 13:52:53;;;;;;;;;12.50;7.75;;;;;5.49;100.00;100015.06;4834773;29;44723;-88
2021/12/05 13:55:43;;;;;;;;;4.75;3.75;;;;;5.53;100.00;100022.72;4844137;29;44757;-88
2021/12/05 13:58:35;;;;;;;;;6.00;6.00;;;;;5.52;100.00;100028.09;4849776;29;45361;-87
2021/12/05 14:01:31;;;;;;;;;6.25;6.25;;;;;5.56;100.00;100029.56;4850386;29;44730;-89
2021/12/05 14:04:08;;;;;;;;;8.25;7.75;;;;;5.62;100.00;100031.88;4819297;29;44813;-90
2021/12/05 14:06:52;;;;;;;;;8.75;7.00;;;;;5.66;100.00;100042.16;4826563;29;44883;-90
2021/12/05 14:09:33;;;;;;;;;9.50;8.00;;;;;5.55;100.00;100035.78;4855360;29;45279;-88
2021/12/05 14:12:03;;;;;;;;;12.50;7.75;;;;;5.50;100.00;100037.84;4843207;29;44845;-88
2021/12/05 14:14:35;;;;;;;;;8.25;8.25;;;;;5.62;100.00;100048.53;4842592;29;44795;-88
2021/12/05 14:17:04;;;;;;;;;2.25;2.25;;;;;5.68;100.00;100042.06;4841493;29;44851;-88
2021/12/05 14:19:33;;;;;;;;;8.50;6.25;;;;;5.61;100.00;100030.19;4820619;29;45455;-84
2021/12/05 14:22:02;;;;;;;;;8.50;4.75;;;;;5.66;100.00;100046.59;4814095;29;44810;-85
2021/12/05 14:24:32;;;;;;;;;11.25;8.75;;;;;5.69;100.00;100056.94;4852609;29;45345;-84
2021/12/05 14:27:02;;;;;;;;;5.25;4.00;;;;;5.65;100.00;100058.03;4895943;29;44828;-86
2021/12/05 14:29:29;;;;;;;;;7.25;5.50;;;;;5.63;100.00;100062.56;4899981;29;45520;-85
2021/12/05 14:32:09;;;;;;;;;6.25;5.50;;;;;5.61;100.00;100070.56;4893452;29;44709;-86
2021/12/05 14:34:35;;;;;;;;;9.25;4.25;;;;;5.53;100.00;100075.41;4907116;29;44886;-86
2021/12/05 14:37:09;;;;;;;;;8.75;5.50;;;;;5.57;100.00;100070.81;4904610;29;45442;-86
2021/12/05 14:39:43;;;;;;;;;9.00;9.00;;;;;5.57;100.00;100084.84;4881204;29;46991;-84
2021/12/05 14:42:15;;;;;;;;;5.50;4.50;;;;;5.62;100.00;100077.53;4868899;29;45605;-83
2021/12/05 14:44:42;;;;;;;;;7.75;5.00;;;;;5.72;100.00;100077.00;4904355;29;44818;-85
2021/12/05 14:47:10;;;;;;;;;5.75;5.75;;;;;5.73;100.00;100087.44;4897925;29;44934;-84
2021/12/05 14:49:42;;;;;;;;;6.50;5.00;;;;;5.77;100.00;100086.34;4892023;29;45499;-85
2021/12/05 14:52:14;;;;;;;;;3.25;3.00;;;;;5.80;100.00;100085.28;4870687;29;45065;-85
2021/12/05 14:54:41;;;;;;;;;4.00;4.00;;;;;5.86;100.00;100093.72;4906128;29;44805;-86
2021/12/05 14:57:11;;;;;;;;;3.00;3.00;;;;;5.93;100.00;100096.84;4906224;29;44808;-87
2021/12/05 14:59:37;;;;;;;;;5.00;4.00;;;;;5.88;100.00;100109.44;4892772;29;46318;-85
2021/12/05 15:02:04;;;;;;;;;6.75;2.75;;;;;5.86;100.00;100103.41;4886065;29;45502;-85
2021/12/05 15:04:37;;;;;;;;;5.00;3.50;;;;;5.86;100.00;100104.25;4901047;29;45316;-84
2021/12/05 15:07:03;;;;;;;;;5.00;5.00;;;;;5.88;100.00;100110.28;4883884;29;45277;-85
2021/12/05 15:09:33;;;;;;;;;5.75;4.75;;;;;5.93;100.00;100110.03;4885145;29;45506;-85
2021/12/05 15:12:07;;;;;;;;;5.40;4.40;;;;;5.90;100.00;100118.97;4880815;29;45249;-85
2021/12/05 15:14:36;;;;;;;;;0.60;0.00;;;;;5.89;100.00;100109.31;4879046;29;44720;-84
2021/12/05 15:17:08;;;;;;;;;3.00;3.00;;;;;5.87;100.00;100129.66;4896216;29;44888;-84
2021/12/05 15:19:36;;;;;;;;;3.75;3.25;;;;;5.86;100.00;100124.50;4887016;29;45090;-85
2021/12/05 15:22:04;;;;;;;;;2.40;2.40;;;;;5.84;100.00;100127.19;4893697;29;45475;-85
2021/12/05 15:24:31;;;;;;;;;4.50;3.00;;;;;5.85;100.00;100139.47;4908061;29;44734;-85
2021/12/05 15:26:58;;;;;;;;;6.00;5.00;;;;;5.79;100.00;100160.03;4909689;29;45245;-84
2021/12/05 15:29:25;;;;;;;;;5.50;4.00;;;;;5.70;100.00;100157.91;4888114;29;45650;-85
2021/12/05 15:31:51;;;;;;;;;5.60;4.40;;;;;5.68;100.00;100168.53;4893600;29;44779;-85
2021/12/05 15:34:29;;;;;;;;;6.75;5.00;;;;;5.65;100.00;100173.97;4900727;29;44766;-85
2021/12/05 15:36:57;;;;;;;;;3.00;2.50;;;;;5.70;100.00;100177.19;4890895;29;44743;-86
2021/12/05 15:39:25;;;;;;;;;6.25;5.00;;;;;5.66;100.00;100173.91;4886442;29;45837;-85
2021/12/05 15:41:55;;;;;;;;;8.50;5.00;;;;;5.63;100.00;100191.66;4901595;28;44773;-84
2021/12/05 15:44:34;;;;;;;;;6.75;6.00;;;;;5.62;100.00;100184.69;4882904;29;45295;-84
2021/12/05 15:47:03;;;;;;;;;6.00;6.00;;;;;5.64;100.00;100196.84;4873069;29;44924;-84
2021/12/05 15:50:00;;;;;;;;;10.00;8.00;;;;;5.68;100.00;100200.16;4901799;29;45470;-85
2021/12/05 15:52:35;;;;;;;;;11.50;10.00;;;;;5.71;100.00;100202.63;4888010;29;44859;-90
2021/12/05 15:55:06;;;;;;;;;7.00;7.00;;;;;5.72;100.00;100209.59;4889257;29;44692;-89
2021/12/05 15:57:36;;;;;;;;;10.25;7.00;;;;;5.73;100.00;100197.28;4906199;29;44795;-88
2021/12/05 16:00:12;;;;;;;;;3.00;3.00;;;;;5.74;100.00;100215.63;4886687;29;45170;-88
2021/12/05 16:02:41;;;;;;;;;7.75;5.00;;;;;5.72;100.00;100214.03;4884812;29;44721;-89
2021/12/05 16:05:22;;;;;;;;;16.25;10.75;;;;;5.72;100.00;100228.06;4892178;29;44834;-89
2021/12/05 16:07:49;;;;;;;;;7.50;6.00;;;;;5.72;100.00;100229.84;4905587;29;44786;-89
2021/12/05 16:10:23;;;;;;;;;11.50;9.00;;;;;5.69;100.00;100241.38;4871562;29;45431;-88
2021/12/05 16:12:52;;;;;;;;;9.00;8.00;;;;;5.74;100.00;100243.75;4888030;29;44779;-88
2021/12/05 16:15:24;;;;;;;;;3.25;3.25;;;;;5.74;100.00;100249.88;4882716;29;44833;-88
2021/12/05 16:17:59;;;;;;;;;5.00;5.00;;;;;5.74;100.00;100244.63;4907230;29;44984;-88
2021/12/05 16:20:28;;;;;;;;;9.00;6.25;;;;;5.77;100.00;100255.00;4907627;29;45280;-88
2021/12/05 16:23:13;;;;;;;;;6.75;6.75;;;;;5.76;100.00;100269.13;4885591;29;45441;-87
2021/12/05 16:25:43;;;;;;;;;9.25;9.25;;;;;5.80;100.00;100275.06;4868353;29;45588;-85
2021/12/05 16:28:12;;;;;;;;;7.25;4.00;;;;;5.80;100.00;100256.59;4899060;29;44781;-87
2021/12/05 16:30:55;;;;;;;;;5.50;4.00;;;;;5.81;100.00;100272.34;4884209;29;45160;-85
2021/12/05 16:33:20;;;;;;;;;10.25;10.25;;;;;5.83;100.00;100275.75;4894580;29;44770;-84
2021/12/05 16:35:58;;;;;;;;;9.00;7.00;;;;;5.84;100.00;100274.81;4890874;29;45354;-85
2021/12/05 16:38:40;;;;;;;;;9.25;8.75;;;;;5.89;100.00;100285.94;4882993;29;45485;-85
2021/12/05 16:41:20;;;;;;;;;9.25;9.00;;;;;5.90;100.00;100281.56;4871752;29;45630;-85
2021/12/05 16:43:54;;;;;;;;;11.75;10.00;;;;;5.92;100.00;100280.53;4895249;28;45227;-85
2021/12/05 16:46:41;;;;;;;;;6.00;5.00;;;;;5.89;100.00;100278.03;4898206;29;45469;-86
2021/12/05 16:49:16;;;;;;;;;9.75;9.75;;;;;5.95;100.00;100292.72;4890183;29;45378;-85
2021/12/05 16:51:54;;;;;;;;;11.75;9.00;;;;;5.99;100.00;100303.94;4911928;29;45415;-87
2021/12/05 16:54:33;;;;;;;;;9.25;9.00;;;;;5.96;100.00;100289.16;4908195;29;44607;-87
2021/12/05 16:57:13;;;;;;;;;11.25;10.00;;;;;6.03;100.00;100306.31;4897003;29;44785;-89
2021/12/05 16:59:47;;;;;;;;;12.00;12.00;;;;;6.05;100.00;100306.25;4870415;29;45549;-88
2021/12/05 17:02:26;;;;;;;;;13.75;12.00;;;;;6.08;100.00;100306.06;4899996;29;45178;-89
2021/12/05 17:05:04;;;;;;;;;15.75;12.00;;;;;6.06;100.00;100313.22;4887229;29;44866;-90
2021/12/05 17:07:55;;;;;;;;;9.25;8.50;;;;;6.03;100.00;100321.28;4910700;29;44674;-88
2021/12/05 17:10:23;;;;;;;;;7.00;6.75;;;;;6.01;100.00;100312.63;4897997;29;44928;-89
2021/12/05 17:12:53;;;;;;;;;16.00;12.25;;;;;6.04;100.00;100315.06;4887511;29;45236;-88